Terminal Aerodrome Forecast
Issued by NWS

Home | Current Version | Previous Version | Text Only | Print | Product List | Glossary On
Versions: 1 2 3 4 5 6 7 8 9 10 11 12 13 14 15 16 17 18 19 20 21 22 23 24 25 26
855
FTUS44 KLIX 221126
TAFHUM
TAF
KHUM 221126Z 2212/2312 00000KT P6SM VCTS SCT025CB BKN100
     FM221900 15006KT P6SM SCT025 BKN100
      TEMPO 2219/2223 4SM -TSRA BKN020CB
     FM230800 00000KT P6SM FEW015 FEW110=

USA.gov is the U.S. government's official web portal to all federal, state and local government web resources and services.